Time;durP1;ratioP1;P1;durP2;ratioP2;P2;SDS_P1;SDS_P2;PMS_P1;PMS_P2;Temp;Humidity;BMP_temperature;BMP_pressure;BME280_temperature;BME280_humidity;BME280_pressure;Samples;Min_cycle;Max_cycle;Signal;HPM_P1;HPM_P2
2021/05/17 00:01:44;;;;;;;4.70;3.60;;;;;;;10.53;77.75;99380.95;104296;1098;80751;-57
2021/05/17 00:03:53;;;;;;;4.70;3.70;;;;;;;10.49;77.82;99377.01;104335;1098;80600;-58
2021/05/17 00:06:00;;;;;;;5.30;4.20;;;;;;;10.44;77.82;99378.69;104310;1098;80604;-58
2021/05/17 00:08:08;;;;;;;5.80;3.90;;;;;;;10.34;78.21;99370.22;104332;1100;78935;-58
2021/05/17 00:10:16;;;;;;;8.60;3.80;;;;;;;10.28;78.03;99371.90;104343;1098;79252;-67
2021/05/17 00:12:22;;;;;;;4.90;3.40;;;;;;;10.22;77.98;99371.94;104316;1098;79304;-67
2021/05/17 00:14:30;;;;;;;5.60;3.50;;;;;;;10.17;78.01;99363.63;104330;1098;80203;-59
2021/05/17 00:16:37;;;;;;;5.70;3.90;;;;;;;10.14;78.14;99372.14;104331;1098;80146;-58
2021/05/17 00:18:43;;;;;;;4.90;4.00;;;;;;;10.03;78.11;99363.63;104285;1098;81037;-59
2021/05/17 00:20:54;;;;;;;4.60;3.70;;;;;;;10.00;78.15;99364.05;104346;1098;80080;-59
2021/05/17 00:23:03;;;;;;;6.10;3.80;;;;;;;9.97;78.36;99366.36;104305;1098;79962;-59
2021/05/17 00:25:15;;;;;;;4.60;3.60;;;;;;;9.92;78.45;99366.97;104310;1098;79679;-68
2021/05/17 00:27:25;;;;;;;5.00;3.70;;;;;;;9.89;78.21;99367.39;104338;1098;79930;-68
2021/05/17 00:29:32;;;;;;;4.50;3.60;;;;;;;9.89;78.34;99364.69;104316;1098;79450;-67
2021/05/17 00:31:39;;;;;;;5.60;3.90;;;;;;;9.87;78.69;99374.03;104312;1098;80820;-68
2021/05/17 00:33:45;;;;;;;6.50;3.90;;;;;;;9.86;78.49;99370.50;104307;1099;80681;-59
2021/05/17 00:35:52;;;;;;;4.60;4.20;;;;;;;9.85;78.54;99366.17;104311;1098;80321;-59
2021/05/17 00:37:59;;;;;;;5.60;4.30;;;;;;;9.84;78.62;99361.80;104344;1099;80449;-59
2021/05/17 00:40:07;;;;;;;5.00;4.10;;;;;;;9.86;78.83;99359.72;104358;1098;80227;-68
2021/05/17 00:42:15;;;;;;;5.20;4.10;;;;;;;9.83;79.00;99357.44;104359;1099;80308;-68
2021/05/17 00:44:21;;;;;;;4.10;3.70;;;;;;;9.83;79.08;99354.73;104335;1099;80688;-68
2021/05/17 00:46:30;;;;;;;5.20;3.90;;;;;;;9.76;79.01;99359.33;104302;1099;81325;-69
2021/05/17 00:48:43;;;;;;;4.80;3.70;;;;;;;9.76;78.79;99358.48;104360;1099;80165;-68
2021/05/17 00:50:49;;;;;;;4.80;3.60;;;;;;;9.71;78.99;99351.03;104335;1098;81487;-59
2021/05/17 00:52:57;;;;;;;4.10;3.70;;;;;;;9.71;78.93;99358.30;104338;1098;80410;-59
2021/05/17 00:55:05;;;;;;;6.30;4.10;;;;;;;9.60;78.96;99365.15;104341;1098;80357;-59
2021/05/17 00:57:15;;;;;;;5.60;4.10;;;;;;;9.56;79.05;99373.88;104344;1098;80652;-59
2021/05/17 00:59:25;;;;;;;6.60;4.00;;;;;;;9.46;78.79;99367.02;104349;1097;79304;-68
2021/05/17 01:01:31;;;;;;;4.60;4.20;;;;;;;9.43;79.10;99367.43;104321;1098;80615;-68
2021/05/17 01:03:39;;;;;;;5.80;4.20;;;;;;;9.41;78.80;99365.98;104329;1098;81793;-68
2021/05/17 01:05:47;;;;;;;4.70;4.20;;;;;;;9.40;79.12;99367.01;104344;1098;80609;-59
2021/05/17 01:07:53;;;;;;;4.50;3.80;;;;;;;9.37;79.08;99365.55;104359;1098;80871;-59
2021/05/17 01:10:00;;;;;;;5.70;4.20;;;;;;;9.30;79.31;99374.68;104339;1098;80665;-58
2021/05/17 01:12:10;;;;;;;5.90;4.60;;;;;;;9.29;79.13;99375.70;104323;1099;78788;-59
2021/05/17 01:14:16;;;;;;;5.20;4.10;;;;;;;9.26;79.28;99378.81;104346;1098;80947;-59
2021/05/17 01:16:22;;;;;;;4.60;4.00;;;;;;;9.25;79.21;99385.25;104331;1099;79147;-59
2021/05/17 01:18:29;;;;;;;5.40;3.90;;;;;;;9.22;79.25;99377.58;104336;1098;79617;-59
2021/05/17 01:20:35;;;;;;;4.60;4.20;;;;;;;9.20;79.20;99385.05;104318;1099;80773;-68
2021/05/17 01:22:59;;;;;;;5.80;4.20;;;;;;;9.21;79.40;99378.59;104323;1098;80786;-68
2021/05/17 01:25:09;;;;;;;5.00;3.90;;;;;;;9.20;79.54;99372.38;104327;1098;81457;-59
2021/05/17 01:27:15;;;;;;;5.10;3.80;;;;;;;9.19;79.65;99375.29;104339;1098;80365;-59
2021/05/17 01:29:21;;;;;;;4.50;4.00;;;;;;;9.17;79.39;99369.28;104322;1098;80515;-59
2021/05/17 01:31:27;;;;;;;5.80;4.60;;;;;;;9.18;79.87;99370.92;104347;1098;80280;-58
2021/05/17 01:33:39;;;;;;;4.90;4.10;;;;;;;9.16;79.63;99379.23;104310;1099;78871;-58
2021/05/17 01:35:48;;;;;;;4.70;4.20;;;;;;;9.14;80.03;99380.47;104348;1098;80054;-58
2021/05/17 01:37:54;;;;;;;7.90;4.30;;;;;;;9.19;79.71;99380.68;104347;1099;79487;-58
2021/05/17 01:40:01;;;;;;;6.70;4.40;;;;;;;9.20;79.94;99380.45;104318;1098;80078;-58
2021/05/17 01:42:10;;;;;;;5.00;4.30;;;;;;;9.26;79.96;99374.25;104325;1098;81520;-58
2021/05/17 01:44:21;;;;;;;5.50;4.10;;;;;;;9.25;79.97;99377.17;104341;1098;79476;-58
2021/05/17 01:46:30;;;;;;;5.00;4.30;;;;;;;9.23;80.04;99385.44;104330;1098;79236;-58
2021/05/17 01:48:40;;;;;;;5.10;4.60;;;;;;;9.22;80.17;99386.50;104347;1098;79086;-58
2021/05/17 01:50:46;;;;;;;5.30;4.10;;;;;;;9.20;79.82;99391.23;104289;1098;79181;-66
2021/05/17 01:52:53;;;;;;;5.70;4.40;;;;;;;9.19;79.98;99389.59;104296;1096;79356;-66
2021/05/17 01:55:00;;;;;;;6.30;4.70;;;;;;;9.24;80.26;99392.50;104339;1098;80119;-59
2021/05/17 01:57:08;;;;;;;5.10;4.60;;;;;;;9.31;80.43;99385.24;104320;1098;80071;-58
2021/05/17 01:59:14;;;;;;;6.50;4.90;;;;;;;9.32;80.67;99386.91;104284;1098;80436;-66
2021/05/17 02:01:21;;;;;;;8.30;4.80;;;;;;;9.31;80.39;99379.85;104316;1098;80766;-67
2021/05/17 02:03:27;;;;;;;6.00;5.10;;;;;;;9.27;80.53;99385.87;104303;1098;80257;-67
2021/05/17 02:05:33;;;;;;;5.80;4.40;;;;;;;9.22;80.28;99388.36;104693;1095;80577;-66
2021/05/17 02:07:39;;;;;;;7.10;4.50;;;;;;;9.19;80.52;99386.07;104698;1096;79530;-66
2021/05/17 02:09:46;;;;;;;9.60;6.20;;;;;;;9.21;80.39;99392.07;104659;1095;79653;-67
2021/05/17 02:11:52;;;;;;;5.00;4.50;;;;;;;9.19;80.54;99391.45;104649;1096;80642;-67
2021/05/17 02:14:00;;;;;;;5.80;5.20;;;;;;;9.23;80.43;99392.72;104687;1095;81277;-58
2021/05/17 02:16:11;;;;;;;5.30;4.80;;;;;;;9.22;80.55;99394.58;104701;1096;79062;-58
2021/05/17 02:18:18;;;;;;;7.00;5.50;;;;;;;9.26;80.58;99397.67;104658;1096;80374;-58
2021/05/17 02:20:25;;;;;;;5.90;5.40;;;;;;;9.27;80.63;99400.18;104614;1096;80001;-67
2021/05/17 02:22:31;;;;;;;6.80;5.30;;;;;;;9.30;80.86;99398.94;104658;1096;79131;-68
2021/05/17 02:24:38;;;;;;;8.70;4.80;;;;;;;9.29;80.86;99397.27;104349;1098;80469;-67
2021/05/17 02:26:45;;;;;;;5.70;5.10;;;;;;;9.30;80.64;99404.33;104658;1095;80466;-67
2021/05/17 02:28:50;;;;;;;6.80;5.70;;;;;;;9.32;80.43;99403.08;104621;1096;81640;-59
2021/05/17 02:30:57;;;;;;;6.40;5.50;;;;;;;9.29;80.33;99399.95;104649;1095;80413;-59
2021/05/17 02:33:03;;;;;;;7.80;5.70;;;;;;;9.22;80.30;99408.05;104670;1095;80301;-59
2021/05/17 02:35:13;;;;;;;6.40;5.70;;;;;;;9.20;80.71;99404.71;104699;1095;80307;-59
2021/05/17 02:37:20;;;;;;;6.00;5.40;;;;;;;9.19;80.53;99407.63;104673;1095;80951;-59
2021/05/17 02:39:27;;;;;;;5.80;5.20;;;;;;;9.16;80.67;99411.56;104611;1095;80352;-59
2021/05/17 02:41:37;;;;;;;5.50;5.00;;;;;;;9.17;80.36;99412.39;104400;1098;79989;-59
2021/05/17 02:43:44;;;;;;;6.30;5.10;;;;;;;9.15;80.50;99403.66;104617;1095;81158;-67
2021/05/17 02:45:51;;;;;;;7.00;6.10;;;;;;;9.22;80.75;99410.75;104615;1095;80877;-68
2021/05/17 02:47:59;;;;;;;6.80;6.00;;;;;;;9.21;80.79;99414.47;104548;1095;80554;-68
2021/05/17 02:50:08;;;;;;;7.00;5.80;;;;;;;9.22;80.63;99412.61;104628;1097;79865;-59
2021/05/17 02:52:17;;;;;;;6.50;5.90;;;;;;;9.22;80.78;99418.00;104637;1094;80477;-59
2021/05/17 02:54:31;;;;;;;7.00;6.30;;;;;;;9.26;80.75;99416.53;104667;1096;79139;-67
2021/05/17 02:57:04;;;;;;;6.20;5.60;;;;;;;9.25;80.74;99410.34;104632;1095;81716;-67
2021/05/17 02:59:24;;;;;;;6.30;5.70;;;;;;;9.25;80.76;99409.50;104441;1097;80134;-67
2021/05/17 03:01:36;;;;;;;6.70;5.90;;;;;;;9.20;80.68;99409.30;104655;1096;79503;-67
2021/05/17 03:03:48;;;;;;;6.40;5.70;;;;;;;9.11;80.45;99407.81;104643;1095;80235;-66
2021/05/17 03:06:05;;;;;;;5.70;5.10;;;;;;;9.08;80.43;99402.83;104645;1095;78654;-67
2021/05/17 03:08:13;;;;;;;5.30;4.70;;;;;;;9.04;80.42;99401.59;104679;1095;80393;-68
2021/05/17 03:10:20;;;;;;;6.70;4.80;;;;;;;9.05;80.39;99411.32;104664;1095;79721;-59
2021/05/17 03:12:28;;;;;;;5.60;5.10;;;;;;;9.07;80.66;99410.08;104621;1096;80192;-59
2021/05/17 03:14:41;;;;;;;6.30;5.70;;;;;;;9.09;80.77;99412.59;104542;1097;80120;-59
2021/05/17 03:16:49;;;;;;;5.20;4.70;;;;;;;9.08;80.43;99413.61;104421;1097;80897;-59
2021/05/17 03:18:57;;;;;;;6.30;5.20;;;;;;;9.08;80.82;99417.14;104389;1096;80894;-68
2021/05/17 03:21:03;;;;;;;6.00;5.40;;;;;;;9.12;80.76;99415.68;104400;1096;80987;-68
2021/05/17 03:23:14;;;;;;;5.80;5.20;;;;;;;9.17;80.61;99420.48;104390;1097;79185;-68
2021/05/17 03:25:24;;;;;;;5.70;4.70;;;;;;;9.21;80.94;99421.71;104399;1097;80128;-68
2021/05/17 03:27:30;;;;;;;5.80;5.30;;;;;;;9.28;80.70;99422.58;104403;1097;79541;-68
2021/05/17 03:29:36;;;;;;;7.90;6.20;;;;;;;9.43;81.12;99423.20;104422;1097;79053;-60
2021/05/17 03:31:41;;;;;;;7.70;6.60;;;;;;;9.61;81.32;99417.22;104411;1097;81430;-59
2021/05/17 03:33:50;;;;;;;8.30;7.10;;;;;;;9.78;81.48;99419.27;104392;1097;79269;-67
2021/05/17 03:35:56;;;;;;;8.50;7.70;;;;;;;10.02;81.59;99420.52;104392;1097;80223;-67
2021/05/17 03:38:01;;;;;;;9.60;7.60;;;;;;;10.53;81.51;99415.23;104387;1097;81116;-67
2021/05/17 03:40:11;;;;;;;8.10;6.90;;;;;;;11.44;81.32;99421.20;104405;1095;80300;-67
2021/05/17 03:42:17;;;;;;;10.40;7.90;;;;;;;12.95;81.59;99415.96;104399;1097;79234;-68
2021/05/17 03:44:23;;;;;;;8.10;6.80;;;;;;;14.42;80.65;99415.10;104411;1097;79517;-68
2021/05/17 03:46:31;;;;;;;7.50;6.30;;;;;;;15.68;79.16;99414.94;104375;1097;80948;-67
2021/05/17 03:48:41;;;;;;;7.30;6.60;;;;;;;16.80;77.70;99398.35;104403;1097;80144;-62
2021/05/17 03:50:47;;;;;;;6.80;6.20;;;;;;;17.67;75.72;99402.60;104406;1097;79760;-59
2021/05/17 03:52:54;;;;;;;8.30;5.70;;;;;;;18.40;73.88;99411.09;104404;1097;79445;-58
2021/05/17 03:54:59;;;;;;;6.00;5.30;;;;;;;19.21;72.13;99402.17;104411;1096;79462;-67
2021/05/17 03:57:07;;;;;;;7.00;6.10;;;;;;;19.75;70.25;99419.00;104360;1098;80083;-67
2021/05/17 03:59:15;;;;;;;5.70;5.20;;;;;;;20.17;68.39;99410.51;104479;1097;80889;-67
2021/05/17 04:01:21;;;;;;;5.80;5.30;;;;;;;20.56;66.78;99414.32;104380;1097;81336;-67
2021/05/17 04:03:27;;;;;;;8.20;5.20;;;;;;;21.04;65.60;99401.78;104403;1097;80633;-67
2021/05/17 04:05:37;;;;;;;5.60;5.10;;;;;;;21.49;64.07;99403.49;104418;1097;80516;-67
2021/05/17 04:07:55;;;;;;;5.50;5.00;;;;;;;22.18;62.51;99403.26;104417;1097;80250;-66
2021/05/17 04:12:34;;;;;;;6.60;4.80;;;;;;;21.72;59.58;99404.72;104442;1097;80315;-59
2021/05/17 04:14:39;;;;;;;6.40;4.90;;;;;;;20.77;59.28;99408.75;104507;1095;80554;-58
2021/05/17 04:16:45;;;;;;;5.60;5.10;;;;;;;20.12;59.53;99412.43;104447;1097;80785;-59
2021/05/17 04:18:52;;;;;;;6.10;5.20;;;;;;;20.01;60.39;99411.63;104450;1097;80665;-66
2021/05/17 04:20:57;;;;;;;5.80;4.80;;;;;;;20.29;59.56;99413.83;104445;1095;80146;-67
2021/05/17 04:23:04;;;;;;;5.90;5.40;;;;;;;19.97;59.27;99415.99;104423;1097;81018;-67
2021/05/17 04:25:12;;;;;;;6.50;5.50;;;;;;;19.21;59.61;99418.60;104424;1097;81000;-58
2021/05/17 04:27:21;;;;;;;6.70;6.00;;;;;;;18.53;60.02;99416.11;104375;1097;80335;-58
2021/05/17 04:29:26;;;;;;;6.30;5.70;;;;;;;17.71;60.86;99416.58;104388;1097;79277;-58
2021/05/17 04:31:32;;;;;;;7.80;5.90;;;;;;;17.48;61.58;99420.41;104422;1097;81116;-58
2021/05/17 04:33:40;;;;;;;6.50;5.60;;;;;;;18.31;62.53;99418.13;104397;1097;81280;-62
2021/05/17 04:35:46;;;;;;;6.10;5.40;;;;;;;19.90;61.44;99420.94;104427;1095;81785;-67
2021/05/17 04:37:51;;;;;;;6.60;5.90;;;;;;;21.31;60.10;99409.66;104428;1096;81623;-67
2021/05/17 04:39:57;;;;;;;6.80;5.50;;;;;;;22.43;59.07;99401.36;104417;1097;81527;-58
2021/05/17 04:42:03;;;;;;;7.20;6.10;;;;;;;23.42;56.51;99400.47;104402;1097;80280;-58
2021/05/17 04:44:11;;;;;;;6.50;5.80;;;;;;;24.03;54.78;99403.91;104427;1097;80347;-58
2021/05/17 04:46:17;;;;;;;5.40;4.90;;;;;;;24.47;53.32;99413.68;104404;1097;80036;-59
2021/05/17 04:48:22;;;;;;;5.90;5.30;;;;;;;25.23;51.66;99418.53;104414;1097;80028;-58
2021/05/17 04:50:29;;;;;;;6.00;5.10;;;;;;;25.89;50.62;99411.51;104420;1097;79214;-58
2021/05/17 04:52:35;;;;;;;5.70;4.80;;;;;;;26.10;49.58;99415.41;104405;1097;79671;-58
2021/05/17 04:54:40;;;;;;;6.00;4.50;;;;;;;26.27;47.87;99421.09;104389;1097;80964;-58
2021/05/17 04:56:46;;;;;;;5.00;4.50;;;;;;;26.60;46.45;99418.83;104391;1097;80583;-58
2021/05/17 04:58:51;;;;;;;5.20;4.80;;;;;;;27.05;45.83;99409.28;104418;1097;79275;-66
2021/05/17 05:00:58;;;;;;;5.80;5.10;;;;;;;27.33;45.82;99412.61;104426;1097;80157;-66
2021/05/17 05:03:04;;;;;;;6.50;4.90;;;;;;;27.47;44.66;99411.34;104396;1097;79587;-66
2021/05/17 05:05:13;;;;;;;5.00;4.20;;;;;;;27.59;43.56;99412.66;104429;1097;78603;-58
2021/05/17 05:07:20;;;;;;;4.70;4.20;;;;;;;27.78;42.95;99413.16;104415;1097;80968;-58
2021/05/17 05:09:25;;;;;;;5.10;4.10;;;;;;;28.17;42.47;99415.78;104406;1097;80588;-58
2021/05/17 05:11:31;;;;;;;5.10;4.50;;;;;;;29.07;41.96;99408.14;104400;1097;79855;-58
2021/05/17 05:13:40;;;;;;;5.20;4.30;;;;;;;29.63;39.97;99404.88;104383;1097;80275;-61
2021/05/17 05:15:45;;;;;;;5.10;4.60;;;;;;;29.69;39.31;99399.92;104398;1097;80471;-58
2021/05/17 05:17:54;;;;;;;4.70;4.30;;;;;;;29.39;39.11;99410.29;104388;1097;81209;-58
2021/05/17 05:19:59;;;;;;;5.60;4.90;;;;;;;28.99;38.77;99403.44;104378;1097;81817;-59
2021/05/17 05:22:05;;;;;;;5.60;4.60;;;;;;;29.22;39.06;99405.65;104399;1097;80560;-58
2021/05/17 05:24:12;;;;;;;5.10;4.60;;;;;;;29.17;38.30;99399.44;104384;1097;79083;-59
2021/05/17 05:26:42;;;;;;;5.60;5.10;;;;;;;29.15;37.84;99396.15;104395;1097;79211;-58
2021/05/17 05:29:02;;;;;;;5.30;4.50;;;;;;;29.86;37.71;99397.00;104398;1097;80860;-59
2021/05/17 05:31:13;;;;;;;5.00;4.60;;;;;;;30.94;36.54;99396.53;104449;1097;81054;-58
2021/05/17 05:33:19;;;;;;;5.40;4.20;;;;;;;31.03;36.15;99398.39;104400;1097;79866;-58
2021/05/17 05:35:24;;;;;;;4.10;3.70;;;;;;;31.67;34.17;99393.69;104373;1097;80565;-67
2021/05/17 05:37:30;;;;;;;5.90;4.30;;;;;;;31.39;33.15;99401.97;104398;1097;81810;-66
2021/05/17 05:39:35;;;;;;;7.40;4.30;;;;;;;31.48;34.51;99396.30;104412;1097;79675;-66
2021/05/17 05:41:41;;;;;;;4.40;4.00;;;;;;;31.72;33.33;99395.41;104403;1097;80975;-67
2021/05/17 05:43:47;;;;;;;5.30;3.90;;;;;;;31.78;33.80;99394.78;104401;1097;81757;-59
2021/05/17 05:45:55;;;;;;;5.70;4.20;;;;;;;31.69;32.77;99391.34;104365;1097;81541;-59
2021/05/17 05:48:05;;;;;;;4.40;3.60;;;;;;;31.33;32.11;99392.20;104402;1097;80266;-58
2021/05/17 05:50:14;;;;;;;4.80;4.10;;;;;;;31.71;32.50;99386.21;104455;1097;79172;-58
2021/05/17 05:52:19;;;;;;;4.40;3.70;;;;;;;31.65;32.40;99378.42;104416;1097;80052;-61
2021/05/17 05:54:25;;;;;;;5.80;4.00;;;;;;;32.35;31.35;99371.28;104403;1097;79886;-63
2021/05/17 05:56:31;;;;;;;4.60;3.90;;;;;;;32.33;30.91;99371.63;104380;1097;79492;-62
2021/05/17 05:58:42;;;;;;;4.80;3.60;;;;;;;32.32;31.05;99369.20;104426;1097;80760;-64
2021/05/17 06:00:47;;;;;;;4.80;3.80;;;;;;;32.32;31.28;99370.02;104385;1097;79607;-62
2021/05/17 06:02:53;;;;;;;6.40;3.90;;;;;;;33.08;30.35;99363.20;104368;1097;80781;-63
2021/05/17 06:04:58;;;;;;;4.60;4.00;;;;;;;33.12;30.84;99375.31;104399;1097;80651;-63
2021/05/17 06:07:04;;;;;;;5.00;4.20;;;;;;;33.34;29.64;99377.44;104380;1097;80954;-61
2021/05/17 06:09:12;;;;;;;6.40;4.50;;;;;;;33.86;29.19;99376.19;104425;1097;79305;-60
2021/05/17 06:11:18;;;;;;;5.10;4.50;;;;;;;33.36;29.06;99377.05;104393;1097;80671;-61
2021/05/17 06:13:26;;;;;;;4.70;4.10;;;;;;;33.30;30.06;99381.31;104375;1098;80939;-60
2021/05/17 06:15:33;;;;;;;4.90;4.40;;;;;;;33.66;28.66;99384.58;104427;1096;78933;-61
2021/05/17 06:17:41;;;;;;;6.10;4.20;;;;;;;33.24;28.17;99378.80;104401;1097;79896;-61
2021/05/17 06:19:48;;;;;;;4.80;4.40;;;;;;;33.48;28.46;99377.76;104405;1097;81614;-60
2021/05/17 06:21:55;;;;;;;5.50;5.00;;;;;;;33.80;28.71;99376.48;104427;1097;80994;-60
2021/05/17 06:24:06;;;;;;;5.20;4.70;;;;;;;34.07;27.83;99371.00;104417;1097;81616;-60
2021/05/17 06:26:16;;;;;;;5.00;4.40;;;;;;;34.61;26.82;99373.70;104425;1097;80713;-61
2021/05/17 06:28:24;;;;;;;5.60;5.10;;;;;;;34.94;27.05;99376.68;104433;1097;80055;-61
2021/05/17 06:30:42;;;;;;;5.30;4.90;;;;;;;34.85;26.96;99378.92;104414;1097;80338;-62
2021/05/17 06:32:48;;;;;;;6.40;5.10;;;;;;;34.23;26.31;99369.76;104394;1097;81305;-62
2021/05/17 06:34:56;;;;;;;5.40;4.90;;;;;;;34.31;26.27;99373.53;104367;1097;80675;-62
2021/05/17 06:37:01;;;;;;;7.30;5.50;;;;;;;33.93;26.61;99370.71;104463;1097;79085;-62
2021/05/17 06:39:12;;;;;;;5.80;5.20;;;;;;;34.16;27.18;99361.22;104417;1096;80635;-63
2021/05/17 06:41:18;;;;;;;6.80;5.30;;;;;;;34.49;26.92;99360.63;104401;1097;80840;-64
2021/05/17 06:43:25;;;;;;;5.60;4.60;;;;;;;34.37;26.53;99367.23;104382;1097;80991;-64
2021/05/17 06:45:34;;;;;;;6.10;5.50;;;;;;;34.32;26.49;99366.72;104420;1096;80097;-62
2021/05/17 06:47:40;;;;;;;5.90;5.20;;;;;;;34.65;25.95;99368.95;104415;1097;79141;-62
2021/05/17 06:49:47;;;;;;;5.60;5.10;;;;;;;34.43;26.02;99362.12;104385;1097;79649;-63
2021/05/17 06:51:54;;;;;;;5.60;5.10;;;;;;;34.66;26.21;99359.36;104382;1098;79417;-63
2021/05/17 06:54:02;;;;;;;6.50;5.90;;;;;;;34.92;26.18;99357.39;104412;1097;79648;-63
2021/05/17 06:56:19;;;;;;;5.60;4.90;;;;;;;35.08;24.76;99360.06;104437;1097;79812;-63
2021/05/17 06:58:28;;;;;;;4.80;4.40;;;;;;;35.00;25.10;99360.33;104407;1096;80150;-64
2021/05/17 07:00:37;;;;;;;5.40;4.40;;;;;;;34.38;25.27;99359.63;104411;1097;80839;-66
2021/05/17 07:02:44;;;;;;;5.70;5.00;;;;;;;34.33;25.47;99366.36;104415;1097;80433;-62
2021/05/17 07:04:57;;;;;;;5.70;5.10;;;;;;;33.69;26.14;99366.22;104426;1097;80411;-62
2021/05/17 07:07:06;;;;;;;5.60;5.10;;;;;;;34.55;25.31;99358.33;104398;1097;81013;-60
2021/05/17 07:11:43;;;;;;;5.90;5.30;;;;;;;35.10;25.10;99342.86;104405;1097;79517;-62
2021/05/17 07:13:52;;;;;;;5.20;4.70;;;;;;;34.95;25.65;99353.02;104396;1097;81025;-62
2021/05/17 07:15:57;;;;;;;6.70;5.50;;;;;;;35.18;25.47;99345.39;104407;1097;81131;-60
2021/05/17 07:18:08;;;;;;;6.50;5.60;;;;;;;34.59;25.82;99342.38;104410;1097;82245;-61
2021/05/17 07:20:22;;;;;;;6.40;5.80;;;;;;;34.90;25.94;99347.72;104448;1097;79903;-61
2021/05/17 07:24:51;;;;;;;5.30;4.70;;;;;;;34.44;24.94;99346.11;104387;1097;80520;-63
2021/05/17 07:26:57;;;;;;;7.90;5.00;;;;;;;34.53;25.27;99338.26;104407;1097;81211;-60
2021/05/17 07:29:05;;;;;;;5.50;5.00;;;;;;;34.72;24.64;99338.22;104426;1096;81334;-63
2021/05/17 07:31:11;;;;;;;6.60;5.80;;;;;;;34.49;24.04;99342.98;104433;1095;80434;-63
2021/05/17 07:33:18;;;;;;;9.30;5.50;;;;;;;34.33;25.02;99335.52;104431;1097;79203;-63
2021/05/17 07:35:23;;;;;;;5.90;4.40;;;;;;;34.16;25.23;99341.59;104382;1097;81053;-65
2021/05/17 07:37:33;;;;;;;5.60;4.70;;;;;;;34.13;25.30;99342.34;104425;1097;80705;-63
2021/05/17 07:39:39;;;;;;;4.70;4.20;;;;;;;34.48;24.55;99344.16;104410;1097;79986;-63
2021/05/17 07:41:45;;;;;;;4.30;3.90;;;;;;;34.58;24.75;99346.39;104407;1097;81560;-64
2021/05/17 07:43:53;;;;;;;4.70;4.20;;;;;;;34.34;25.28;99353.94;104411;1097;80890;-61
2021/05/17 07:45:59;;;;;;;4.70;4.30;;;;;;;34.12;24.72;99340.70;104403;1097;80371;-60
2021/05/17 07:48:09;;;;;;;4.70;4.30;;;;;;;34.36;24.26;99345.95;104402;1097;79916;-60
2021/05/17 07:50:16;;;;;;;5.30;4.20;;;;;;;34.23;25.09;99338.91;104372;1097;80329;-61
2021/05/17 07:52:22;;;;;;;4.90;4.30;;;;;;;34.03;24.66;99333.70;104425;1097;79242;-60
2021/05/17 07:54:31;;;;;;;4.80;3.70;;;;;;;34.46;23.95;99333.33;104416;1097;79542;-62
2021/05/17 07:56:37;;;;;;;5.30;3.30;;;;;;;34.29;23.99;99345.84;104387;1097;80425;-62
2021/05/17 07:58:43;;;;;;;2.60;2.40;;;;;;;34.61;23.58;99345.64;104390;1097;82035;-63
2021/05/17 08:00:50;;;;;;;4.70;3.50;;;;;;;34.15;23.43;99353.17;104360;1098;80470;-61
2021/05/17 08:02:55;;;;;;;4.50;3.20;;;;;;;34.14;23.58;99355.19;104396;1097;80664;-61
2021/05/17 08:05:02;;;;;;;3.50;2.80;;;;;;;34.00;23.50;99354.88;104437;1097;80841;-63
2021/05/17 08:07:10;;;;;;;3.60;3.30;;;;;;;33.74;23.37;99357.52;104409;1097;79967;-63
2021/05/17 08:09:16;;;;;;;3.70;3.20;;;;;;;33.40;23.84;99352.75;104386;1097;80775;-63
2021/05/17 08:11:22;;;;;;;4.90;3.90;;;;;;;33.28;24.41;99348.09;104395;1097;80859;-62
2021/05/17 08:13:31;;;;;;;6.10;3.60;;;;;;;33.40;25.04;99361.98;104390;1096;81035;-62
2021/05/17 08:15:37;;;;;;;4.00;3.30;;;;;;;33.27;24.96;99354.06;104369;1097;80754;-63
2021/05/17 08:17:43;;;;;;;3.90;3.50;;;;;;;33.64;24.53;99363.72;104311;1098;80186;-63
2021/05/17 08:19:49;;;;;;;2.60;2.40;;;;;;;33.83;24.25;99346.91;104416;1096;81172;-64
2021/05/17 08:21:54;;;;;;;3.80;3.00;;;;;;;34.05;24.80;99346.16;104403;1097;81392;-64
2021/05/17 08:24:00;;;;;;;4.50;3.70;;;;;;;33.66;24.58;99350.15;104378;1097;80860;-65
2021/05/17 08:26:07;;;;;;;5.40;3.30;;;;;;;33.72;23.96;99340.27;104385;1097;79375;-63
2021/05/17 08:28:14;;;;;;;4.20;2.70;;;;;;;33.67;23.92;99347.00;104432;1097;81256;-62
2021/05/17 08:30:24;;;;;;;4.40;3.40;;;;;;;33.36;24.40;99337.85;104446;1097;80248;-64
2021/05/17 08:32:29;;;;;;;3.80;2.70;;;;;;;32.39;25.36;99344.22;104400;1097;80364;-63
2021/05/17 08:34:39;;;;;;;4.10;3.10;;;;;;;32.90;24.97;99343.17;104394;1097;80452;-62
2021/05/17 08:36:45;;;;;;;5.70;2.60;;;;;;;32.91;25.08;99346.79;104388;1097;80537;-62
2021/05/17 08:38:50;;;;;;;4.50;2.80;;;;;;;32.87;24.52;99346.70;104423;1097;80701;-63
2021/05/17 08:40:56;;;;;;;6.20;3.20;;;;;;;33.27;24.29;99340.86;104440;1097;80893;-61
2021/05/17 08:43:06;;;;;;;4.10;3.10;;;;;;;33.70;23.86;99331.44;104394;1096;79667;-62
2021/05/17 08:45:13;;;;;;;3.00;2.40;;;;;;;33.43;24.51;99333.21;104414;1097;80114;-63
2021/05/17 08:47:22;;;;;;;5.30;3.10;;;;;;;33.29;24.66;99344.13;104401;1097;79147;-62
2021/05/17 08:49:28;;;;;;;5.00;2.10;;;;;;;33.73;23.71;99339.89;104434;1097;79737;-63
2021/05/17 08:51:38;;;;;;;3.50;1.80;;;;;;;33.28;23.19;99352.88;104412;1095;81654;-65
2021/05/17 08:53:53;;;;;;;3.30;1.50;;;;;;;33.15;23.42;99344.61;104328;1098;80441;-65
2021/05/17 08:55:59;;;;;;;2.20;1.70;;;;;;;33.13;22.58;99338.54;104438;1097;80481;-63
2021/05/17 08:58:08;;;;;;;1.80;1.40;;;;;;;33.10;22.15;99336.47;104387;1097;80935;-64
2021/05/17 09:00:18;;;;;;;3.90;1.80;;;;;;;32.65;22.05;99334.17;104436;1097;80547;-63
2021/05/17 09:02:26;;;;;;;1.80;1.30;;;;;;;32.27;23.00;99338.72;104411;1097;80086;-63
2021/05/17 09:04:35;;;;;;;2.50;1.70;;;;;;;32.79;23.68;99335.69;104381;1097;80318;-62
2021/05/17 09:06:46;;;;;;;3.80;1.90;;;;;;;32.62;23.29;99339.66;104423;1097;80859;-62
2021/05/17 09:08:52;;;;;;;2.50;2.10;;;;;;;32.47;23.64;99337.66;104383;1097;82678;-61
2021/05/17 09:10:58;;;;;;;2.80;2.50;;;;;;;32.27;23.87;99345.13;104429;1097;80454;-62
2021/05/17 09:13:09;;;;;;;2.70;2.40;;;;;;;31.60;25.10;99348.77;104400;1097;79626;-62
2021/05/17 09:15:16;;;;;;;4.10;2.90;;;;;;;31.12;24.33;99326.54;104420;1097;79324;-62
2021/05/17 09:17:21;;;;;;;3.60;2.00;;;;;;;30.04;24.92;99330.81;104408;1096;80478;-62
2021/05/17 09:19:30;;;;;;;2.30;2.10;;;;;;;29.33;26.69;99322.59;104383;1097;79756;-63
2021/05/17 09:21:58;;;;;;;2.90;2.50;;;;;;;29.32;26.28;99315.38;104443;1097;79033;-61
2021/05/17 09:24:06;;;;;;;3.10;2.80;;;;;;;28.44;27.35;99317.33;104666;1095;80376;-63
2021/05/17 09:26:15;;;;;;;3.10;2.20;;;;;;;28.58;28.16;99318.73;104446;1097;81445;-63
2021/05/17 09:28:26;;;;;;;4.40;2.70;;;;;;;28.65;28.37;99324.61;104406;1097;80980;-64
2021/05/17 09:30:47;;;;;;;3.40;2.40;;;;;;;28.57;27.86;99316.27;104462;1097;81223;-62
2021/05/17 09:32:53;;;;;;;3.40;2.70;;;;;;;28.10;28.87;99307.17;104385;1097;81443;-61
2021/05/17 09:35:06;;;;;;;3.80;2.40;;;;;;;27.66;28.23;99321.42;104412;1097;79807;-59
2021/05/17 09:37:18;;;;;;;3.70;2.90;;;;;;;27.02;29.72;99320.38;104433;1097;80712;-60
2021/05/17 09:39:23;;;;;;;2.70;2.20;;;;;;;27.23;30.21;99319.42;104440;1097;79534;-59
2021/05/17 09:41:44;;;;;;;4.60;2.20;;;;;;;27.34;30.26;99309.64;104389;1097;81305;-59
2021/05/17 09:43:50;;;;;;;2.60;1.90;;;;;;;27.05;29.26;99309.47;104653;1096;80583;-59
2021/05/17 09:46:00;;;;;;;3.10;2.00;;;;;;;26.53;30.52;99319.58;104437;1097;80799;-58
2021/05/17 09:48:12;;;;;;;2.70;2.00;;;;;;;26.36;29.95;99314.78;104416;1097;80995;-60
2021/05/17 09:50:18;;;;;;;5.20;2.10;;;;;;;25.81;30.50;99313.47;104419;1097;81067;-60
2021/05/17 09:52:27;;;;;;;3.20;2.50;;;;;;;25.76;30.65;99321.91;104394;1097;78917;-59
2021/05/17 09:54:45;;;;;;;3.60;2.00;;;;;;;25.41;30.64;99317.22;104459;1097;80642;-59
2021/05/17 09:57:03;;;;;;;3.90;2.10;;;;;;;25.42;30.91;99313.30;104432;1097;80715;-58
2021/05/17 09:59:10;;;;;;;2.10;2.00;;;;;;;25.43;30.78;99314.95;104390;1097;80328;-56
2021/05/17 10:01:27;;;;;;;5.00;2.40;;;;;;;25.39;31.43;99316.69;104408;1097;80035;-57
2021/05/17 10:03:41;;;;;;;3.00;2.50;;;;;;;25.39;31.68;99311.16;104614;1095;79849;-57
2021/05/17 10:05:49;;;;;;;2.20;1.90;;;;;;;25.27;31.19;99308.97;104470;1097;79173;-59